sensor_id;sensor_type;location;lat;lon;timestamp;temperature;humidity
12948;DHT22;6539;49.476;8.484;2022-10-15T00:01:15;16.20;99.90
12948;DHT22;6539;49.476;8.484;2022-10-15T00:03:44;16.10;99.90
12948;DHT22;6539;49.476;8.484;2022-10-15T00:06:13;16.10;99.90
12948;DHT22;6539;49.476;8.484;2022-10-15T00:08:43;15.80;99.90
12948;DHT22;6539;49.476;8.484;2022-10-15T00:11:20;16.20;99.90
12948;DHT22;6539;49.476;8.484;2022-10-15T00:13:48;16.00;99.90
12948;DHT22;6539;49.476;8.484;2022-10-15T00:16:17;16.00;99.90
12948;DHT22;6539;49.476;8.484;2022-10-15T00:18:51;15.80;99.90
12948;DHT22;6539;49.476;8.484;2022-10-15T00:21:21;16.30;99.90
12948;DHT22;6539;49.476;8.484;2022-10-15T00:23:47;15.80;99.90
12948;DHT22;6539;49.476;8.484;2022-10-15T00:26:16;16.10;99.90
12948;DHT22;6539;49.476;8.484;2022-10-15T00:28:51;16.10;99.90
12948;DHT22;6539;49.476;8.484;2022-10-15T00:31:19;15.80;99.90
12948;DHT22;6539;49.476;8.484;2022-10-15T00:33:49;16.00;99.90
12948;DHT22;6539;49.476;8.484;2022-10-15T00:36:23;15.90;99.90
12948;DHT22;6539;49.476;8.484;2022-10-15T00:38:52;16.40;99.90
12948;DHT22;6539;49.476;8.484;2022-10-15T00:41:31;16.00;99.90
12948;DHT22;6539;49.476;8.484;2022-10-15T00:49:39;15.90;99.90
12948;DHT22;6539;49.476;8.484;2022-10-15T00:52:22;16.00;99.90
12948;DHT22;6539;49.476;8.484;2022-10-15T00:55:07;16.30;99.90
12948;DHT22;6539;49.476;8.484;2022-10-15T00:57:49;16.10;99.90
12948;DHT22;6539;49.476;8.484;2022-10-15T01:00:16;16.10;99.90
12948;DHT22;6539;49.476;8.484;2022-10-15T01:02:44;16.20;99.90
12948;DHT22;6539;49.476;8.484;2022-10-15T01:05:11;15.90;99.90
12948;DHT22;6539;49.476;8.484;2022-10-15T01:07:42;16.40;99.90
12948;DHT22;6539;49.476;8.484;2022-10-15T01:10:09;16.10;99.90
12948;DHT22;6539;49.476;8.484;2022-10-15T01:15:50;16.20;99.90
12948;DHT22;6539;49.476;8.484;2022-10-15T01:18:27;16.00;99.90
12948;DHT22;6539;49.476;8.484;2022-10-15T01:29:42;16.40;99.90
12948;DHT22;6539;49.476;8.484;2022-10-15T01:32:30;16.30;99.90
12948;DHT22;6539;49.476;8.484;2022-10-15T01:38:15;16.20;99.90
12948;DHT22;6539;49.476;8.484;2022-10-15T01:40:48;16.10;99.90
12948;DHT22;6539;49.476;8.484;2022-10-15T01:43:36;15.90;99.90
12948;DHT22;6539;49.476;8.484;2022-10-15T01:46:15;16.50;99.90
12948;DHT22;6539;49.476;8.484;2022-10-15T01:48:48;16.40;99.90
12948;DHT22;6539;49.476;8.484;2022-10-15T01:51:18;16.40;99.90
12948;DHT22;6539;49.476;8.484;2022-10-15T01:53:46;16.10;99.90
12948;DHT22;6539;49.476;8.484;2022-10-15T01:56:19;16.30;99.90
12948;DHT22;6539;49.476;8.484;2022-10-15T01:58:49;16.00;99.90
12948;DHT22;6539;49.476;8.484;2022-10-15T02:01:21;16.30;99.90
12948;DHT22;6539;49.476;8.484;2022-10-15T02:06:33;16.40;99.90
12948;DHT22;6539;49.476;8.484;2022-10-15T02:09:15;16.20;99.90
12948;DHT22;6539;49.476;8.484;2022-10-15T02:14:38;16.10;99.90
12948;DHT22;6539;49.476;8.484;2022-10-15T02:17:36;16.20;99.90
12948;DHT22;6539;49.476;8.484;2022-10-15T02:20:14;16.30;99.90
12948;DHT22;6539;49.476;8.484;2022-10-15T02:22:55;16.50;99.90
12948;DHT22;6539;49.476;8.484;2022-10-15T02:25:29;16.50;99.90
12948;DHT22;6539;49.476;8.484;2022-10-15T02:27:59;16.20;99.90
12948;DHT22;6539;49.476;8.484;2022-10-15T02:30:32;16.40;99.90
12948;DHT22;6539;49.476;8.484;2022-10-15T02:35:26;16.30;99.90
12948;DHT22;6539;49.476;8.484;2022-10-15T02:37:53;16.30;99.90
12948;DHT22;6539;49.476;8.484;2022-10-15T02:40:27;16.10;99.90
12948;DHT22;6539;49.476;8.484;2022-10-15T02:42:57;16.40;99.90
12948;DHT22;6539;49.476;8.484;2022-10-15T02:45:24;16.20;99.90
12948;DHT22;6539;49.476;8.484;2022-10-15T02:47:52;16.20;99.90
12948;DHT22;6539;49.476;8.484;2022-10-15T02:50:17;16.60;99.90
12948;DHT22;6539;49.476;8.484;2022-10-15T02:52:43;16.10;99.90
12948;DHT22;6539;49.476;8.484;2022-10-15T02:55:09;16.10;99.90
12948;DHT22;6539;49.476;8.484;2022-10-15T03:00:04;16.40;99.90
12948;DHT22;6539;49.476;8.484;2022-10-15T03:02:30;16.60;99.90
12948;DHT22;6539;49.476;8.484;2022-10-15T03:04:56;16.30;99.90
12948;DHT22;6539;49.476;8.484;2022-10-15T03:07:22;16.50;99.90
12948;DHT22;6539;49.476;8.484;2022-10-15T03:12:13;16.50;99.90
12948;DHT22;6539;49.476;8.484;2022-10-15T03:14:39;16.40;99.90
12948;DHT22;6539;49.476;8.484;2022-10-15T03:19:34;16.50;99.90
12948;DHT22;6539;49.476;8.484;2022-10-15T03:22:02;16.60;99.90
12948;DHT22;6539;49.476;8.484;2022-10-15T03:24:28;16.70;99.90
12948;DHT22;6539;49.476;8.484;2022-10-15T03:26:54;16.40;99.90
12948;DHT22;6539;49.476;8.484;2022-10-15T03:29:19;16.30;99.90
12948;DHT22;6539;49.476;8.484;2022-10-15T03:31:50;16.40;99.90
12948;DHT22;6539;49.476;8.484;2022-10-15T03:34:18;16.30;99.90
12948;DHT22;6539;49.476;8.484;2022-10-15T03:39:13;16.40;99.90
12948;DHT22;6539;49.476;8.484;2022-10-15T03:41:41;16.60;99.90
12948;DHT22;6539;49.476;8.484;2022-10-15T03:44:07;17.20;99.90
12948;DHT22;6539;49.476;8.484;2022-10-15T03:46:34;16.70;99.90
12948;DHT22;6539;49.476;8.484;2022-10-15T03:49:03;16.30;99.90
12948;DHT22;6539;49.476;8.484;2022-10-15T03:51:29;16.70;99.90
12948;DHT22;6539;49.476;8.484;2022-10-15T03:56:20;16.50;99.90
12948;DHT22;6539;49.476;8.484;2022-10-15T03:58:49;16.60;99.90
12948;DHT22;6539;49.476;8.484;2022-10-15T04:01:18;16.50;99.90
12948;DHT22;6539;49.476;8.484;2022-10-15T04:08:39;16.50;99.90
12948;DHT22;6539;49.476;8.484;2022-10-15T04:11:05;16.30;99.90
12948;DHT22;6539;49.476;8.484;2022-10-15T04:13:33;16.80;99.90
12948;DHT22;6539;49.476;8.484;2022-10-15T04:15:59;16.50;99.90
12948;DHT22;6539;49.476;8.484;2022-10-15T04:20:51;16.70;99.90
12948;DHT22;6539;49.476;8.484;2022-10-15T04:30:40;16.70;99.90
12948;DHT22;6539;49.476;8.484;2022-10-15T04:33:05;16.40;99.90
12948;DHT22;6539;49.476;8.484;2022-10-15T04:38:03;16.60;99.90
12948;DHT22;6539;49.476;8.484;2022-10-15T04:42:54;16.90;99.90
12948;DHT22;6539;49.476;8.484;2022-10-15T04:45:22;16.90;99.90
12948;DHT22;6539;49.476;8.484;2022-10-15T04:47:50;16.80;99.90
12948;DHT22;6539;49.476;8.484;2022-10-15T04:50:19;16.60;99.90
12948;DHT22;6539;49.476;8.484;2022-10-15T04:52:47;16.60;99.90
12948;DHT22;6539;49.476;8.484;2022-10-15T04:55:13;16.80;99.90
12948;DHT22;6539;49.476;8.484;2022-10-15T04:57:38;16.40;99.90
12948;DHT22;6539;49.476;8.484;2022-10-15T05:00:09;16.80;99.90
12948;DHT22;6539;49.476;8.484;2022-10-15T05:02:36;17.10;99.90
12948;DHT22;6539;49.476;8.484;2022-10-15T05:09:54;16.80;99.90
12948;DHT22;6539;49.476;8.484;2022-10-15T05:12:19;16.50;99.90
12948;DHT22;6539;49.476;8.484;2022-10-15T05:17:11;16.80;99.90
12948;DHT22;6539;49.476;8.484;2022-10-15T05:22:03;16.60;99.90
12948;DHT22;6539;49.476;8.484;2022-10-15T05:26:57;16.40;99.90
12948;DHT22;6539;49.476;8.484;2022-10-15T05:29:27;16.90;99.90
12948;DHT22;6539;49.476;8.484;2022-10-15T05:31:55;16.80;99.90
12948;DHT22;6539;49.476;8.484;2022-10-15T05:34:24;16.80;99.90
12948;DHT22;6539;49.476;8.484;2022-10-15T05:36:51;16.80;99.90
12948;DHT22;6539;49.476;8.484;2022-10-15T05:39:19;16.60;99.90
12948;DHT22;6539;49.476;8.484;2022-10-15T05:44:14;16.60;99.90
12948;DHT22;6539;49.476;8.484;2022-10-15T05:46:40;16.40;99.90
12948;DHT22;6539;49.476;8.484;2022-10-15T05:54:00;16.80;99.90
12948;DHT22;6539;49.476;8.484;2022-10-15T05:56:26;17.00;99.90
12948;DHT22;6539;49.476;8.484;2022-10-15T05:58:54;16.80;99.90
12948;DHT22;6539;49.476;8.484;2022-10-15T06:03:51;16.60;99.90
12948;DHT22;6539;49.476;8.484;2022-10-15T06:06:25;16.70;99.90
12948;DHT22;6539;49.476;8.484;2022-10-15T06:08:52;16.90;99.90
12948;DHT22;6539;49.476;8.484;2022-10-15T06:11:19;16.50;99.90
12948;DHT22;6539;49.476;8.484;2022-10-15T06:16:16;17.00;99.90
12948;DHT22;6539;49.476;8.484;2022-10-15T06:18:42;16.50;99.90
12948;DHT22;6539;49.476;8.484;2022-10-15T06:21:09;17.00;99.90
12948;DHT22;6539;49.476;8.484;2022-10-15T06:23:36;16.70;99.90
12948;DHT22;6539;49.476;8.484;2022-10-15T06:26:08;16.40;99.90
12948;DHT22;6539;49.476;8.484;2022-10-15T06:28:35;16.70;99.90
12948;DHT22;6539;49.476;8.484;2022-10-15T06:31:05;16.70;99.90
12948;DHT22;6539;49.476;8.484;2022-10-15T06:36:04;17.00;99.90
12948;DHT22;6539;49.476;8.484;2022-10-15T06:38:33;16.70;99.90
12948;DHT22;6539;49.476;8.484;2022-10-15T06:41:03;16.80;99.90
12948;DHT22;6539;49.476;8.484;2022-10-15T06:43:38;16.90;99.90
12948;DHT22;6539;49.476;8.484;2022-10-15T06:46:04;17.00;99.90
12948;DHT22;6539;49.476;8.484;2022-10-15T06:48:33;16.70;99.90
12948;DHT22;6539;49.476;8.484;2022-10-15T06:51:02;16.60;99.90
12948;DHT22;6539;49.476;8.484;2022-10-15T06:53:31;16.80;99.90
12948;DHT22;6539;49.476;8.484;2022-10-15T06:55:57;16.80;99.90
12948;DHT22;6539;49.476;8.484;2022-10-15T06:58:27;16.60;99.90
12948;DHT22;6539;49.476;8.484;2022-10-15T07:00:59;16.40;99.90
12948;DHT22;6539;49.476;8.484;2022-10-15T07:03:31;16.60;99.90
12948;DHT22;6539;49.476;8.484;2022-10-15T07:06:04;16.50;99.90
12948;DHT22;6539;49.476;8.484;2022-10-15T07:08:34;16.90;99.90
12948;DHT22;6539;49.476;8.484;2022-10-15T07:11:04;16.70;99.90
12948;DHT22;6539;49.476;8.484;2022-10-15T07:13:31;16.50;99.90
12948;DHT22;6539;49.476;8.484;2022-10-15T07:16:01;16.90;99.90
12948;DHT22;6539;49.476;8.484;2022-10-15T07:18:34;17.00;99.90
12948;DHT22;6539;49.476;8.484;2022-10-15T07:21:03;16.70;99.90
12948;DHT22;6539;49.476;8.484;2022-10-15T07:23:31;16.60;99.90
12948;DHT22;6539;49.476;8.484;2022-10-15T07:26:00;17.00;99.90
12948;DHT22;6539;49.476;8.484;2022-10-15T07:28:26;16.80;99.90
12948;DHT22;6539;49.476;8.484;2022-10-15T07:31:01;16.70;99.90
12948;DHT22;6539;49.476;8.484;2022-10-15T07:33:28;16.90;99.90
12948;DHT22;6539;49.476;8.484;2022-10-15T07:35:57;17.10;99.90
12948;DHT22;6539;49.476;8.484;2022-10-15T07:38:26;17.20;99.90
12948;DHT22;6539;49.476;8.484;2022-10-15T07:43:21;16.90;99.90
12948;DHT22;6539;49.476;8.484;2022-10-15T07:45:47;16.60;99.90
12948;DHT22;6539;49.476;8.484;2022-10-15T07:48:20;16.90;99.90
12948;DHT22;6539;49.476;8.484;2022-10-15T07:50:46;16.80;99.90
12948;DHT22;6539;49.476;8.484;2022-10-15T07:53:11;16.70;99.90
12948;DHT22;6539;49.476;8.484;2022-10-15T07:55:40;16.90;99.90
12948;DHT22;6539;49.476;8.484;2022-10-15T08:00:36;17.10;99.90
12948;DHT22;6539;49.476;8.484;2022-10-15T08:03:04;17.20;99.90
12948;DHT22;6539;49.476;8.484;2022-10-15T08:05:30;16.70;99.90
12948;DHT22;6539;49.476;8.484;2022-10-15T08:08:01;16.60;99.90
12948;DHT22;6539;49.476;8.484;2022-10-15T08:10:27;16.70;99.90
12948;DHT22;6539;49.476;8.484;2022-10-15T08:12:56;17.00;99.90
12948;DHT22;6539;49.476;8.484;2022-10-15T08:15:21;17.10;99.90
12948;DHT22;6539;49.476;8.484;2022-10-15T08:17:47;16.80;99.90
12948;DHT22;6539;49.476;8.484;2022-10-15T08:20:13;17.30;99.90
12948;DHT22;6539;49.476;8.484;2022-10-15T08:25:05;17.00;99.90
12948;DHT22;6539;49.476;8.484;2022-10-15T08:29:57;17.40;99.90
12948;DHT22;6539;49.476;8.484;2022-10-15T08:32:23;17.20;99.90
12948;DHT22;6539;49.476;8.484;2022-10-15T08:34:49;17.50;99.90
12948;DHT22;6539;49.476;8.484;2022-10-15T08:37:14;17.40;99.90
12948;DHT22;6539;49.476;8.484;2022-10-15T08:42:21;17.20;99.90
12948;DHT22;6539;49.476;8.484;2022-10-15T08:45:24;17.00;99.90
12948;DHT22;6539;49.476;8.484;2022-10-15T08:48:03;17.40;99.90
12948;DHT22;6539;49.476;8.484;2022-10-15T08:51:03;17.20;99.90
12948;DHT22;6539;49.476;8.484;2022-10-15T08:53:39;17.60;99.90
12948;DHT22;6539;49.476;8.484;2022-10-15T08:56:26;17.40;99.90
12948;DHT22;6539;49.476;8.484;2022-10-15T09:02:15;17.60;99.90
12948;DHT22;6539;49.476;8.484;2022-10-15T09:05:02;17.80;99.90
12948;DHT22;6539;49.476;8.484;2022-10-15T09:07:51;17.20;99.90
12948;DHT22;6539;49.476;8.484;2022-10-15T09:10:45;17.50;99.90
12948;DHT22;6539;49.476;8.484;2022-10-15T09:13:32;17.40;99.90
12948;DHT22;6539;49.476;8.484;2022-10-15T09:18:55;17.60;99.90
12948;DHT22;6539;49.476;8.484;2022-10-15T09:21:25;17.40;99.90
12948;DHT22;6539;49.476;8.484;2022-10-15T09:23:57;17.60;99.90
12948;DHT22;6539;49.476;8.484;2022-10-15T09:29:26;17.40;99.90
12948;DHT22;6539;49.476;8.484;2022-10-15T09:32:33;17.20;99.90
12948;DHT22;6539;49.476;8.484;2022-10-15T09:43:21;17.40;99.90
12948;DHT22;6539;49.476;8.484;2022-10-15T09:45:53;17.00;99.90
12948;DHT22;6539;49.476;8.484;2022-10-15T09:48:19;17.00;99.90
12948;DHT22;6539;49.476;8.484;2022-10-15T09:51:39;17.00;99.90
12948;DHT22;6539;49.476;8.484;2022-10-15T09:56:56;17.40;99.90
12948;DHT22;6539;49.476;8.484;2022-10-15T09:59:23;17.30;99.90
12948;DHT22;6539;49.476;8.484;2022-10-15T10:04:32;17.70;99.90
12948;DHT22;6539;49.476;8.484;2022-10-15T10:07:04;17.60;99.90
12948;DHT22;6539;49.476;8.484;2022-10-15T10:09:35;17.50;99.90
12948;DHT22;6539;49.476;8.484;2022-10-15T10:12:06;17.30;99.90
12948;DHT22;6539;49.476;8.484;2022-10-15T10:14:53;17.60;99.90
12948;DHT22;6539;49.476;8.484;2022-10-15T10:17:23;17.40;99.90
12948;DHT22;6539;49.476;8.484;2022-10-15T10:27:55;17.60;99.90
12948;DHT22;6539;49.476;8.484;2022-10-15T10:30:26;17.90;99.90
12948;DHT22;6539;49.476;8.484;2022-10-15T10:32:59;17.90;99.90
12948;DHT22;6539;49.476;8.484;2022-10-15T10:35:43;18.00;99.90
12948;DHT22;6539;49.476;8.484;2022-10-15T10:38:21;17.80;99.90
12948;DHT22;6539;49.476;8.484;2022-10-15T10:40:58;18.10;99.90
12948;DHT22;6539;49.476;8.484;2022-10-15T10:43:34;18.20;99.90
12948;DHT22;6539;49.476;8.484;2022-10-15T10:46:20;18.30;99.90
12948;DHT22;6539;49.476;8.484;2022-10-15T10:48:50;18.10;99.90
12948;DHT22;6539;49.476;8.484;2022-10-15T10:51:23;18.20;99.90
12948;DHT22;6539;49.476;8.484;2022-10-15T10:56:36;18.10;99.90
12948;DHT22;6539;49.476;8.484;2022-10-15T10:59:26;18.20;99.90
12948;DHT22;6539;49.476;8.484;2022-10-15T11:02:00;18.40;99.90
12948;DHT22;6539;49.476;8.484;2022-10-15T11:04:30;18.20;99.90
12948;DHT22;6539;49.476;8.484;2022-10-15T11:09:52;18.00;99.90
12948;DHT22;6539;49.476;8.484;2022-10-15T11:15:59;18.20;99.90
12948;DHT22;6539;49.476;8.484;2022-10-15T11:24:56;17.90;99.90
12948;DHT22;6539;49.476;8.484;2022-10-15T11:30:52;18.20;99.90
12948;DHT22;6539;49.476;8.484;2022-10-15T11:33:50;18.30;99.90
12948;DHT22;6539;49.476;8.484;2022-10-15T11:42:17;18.60;99.90
12948;DHT22;6539;49.476;8.484;2022-10-15T11:44:53;18.20;99.90
12948;DHT22;6539;49.476;8.484;2022-10-15T11:53:20;18.40;99.90
12948;DHT22;6539;49.476;8.484;2022-10-15T11:58:54;18.60;99.90
12948;DHT22;6539;49.476;8.484;2022-10-15T12:01:31;18.50;99.90
12948;DHT22;6539;49.476;8.484;2022-10-15T12:07:48;18.50;99.90
12948;DHT22;6539;49.476;8.484;2022-10-15T12:10:25;18.80;99.90
12948;DHT22;6539;49.476;8.484;2022-10-15T12:13:16;18.70;99.90
12948;DHT22;6539;49.476;8.484;2022-10-15T12:16:12;18.60;99.90
12948;DHT22;6539;49.476;8.484;2022-10-15T12:21:35;18.40;99.90
12948;DHT22;6539;49.476;8.484;2022-10-15T12:32:40;18.70;99.90
12948;DHT22;6539;49.476;8.484;2022-10-15T12:37:39;18.40;99.90
12948;DHT22;6539;49.476;8.484;2022-10-15T12:42:50;18.50;99.90
12948;DHT22;6539;49.476;8.484;2022-10-15T12:50:34;18.50;99.90
12948;DHT22;6539;49.476;8.484;2022-10-15T12:56:20;18.70;99.90
12948;DHT22;6539;49.476;8.484;2022-10-15T12:58:50;18.00;99.90
12948;DHT22;6539;49.476;8.484;2022-10-15T13:11:47;18.40;99.90
12948;DHT22;6539;49.476;8.484;2022-10-15T13:17:01;18.10;99.90
12948;DHT22;6539;49.476;8.484;2022-10-15T13:19:39;18.10;99.90
12948;DHT22;6539;49.476;8.484;2022-10-15T13:22:27;18.20;99.90
12948;DHT22;6539;49.476;8.484;2022-10-15T13:24:56;18.30;99.90
12948;DHT22;6539;49.476;8.484;2022-10-15T13:27:36;17.70;99.90
12948;DHT22;6539;49.476;8.484;2022-10-15T13:32:44;18.10;99.90
12948;DHT22;6539;49.476;8.484;2022-10-15T13:35:22;18.10;99.90
12948;DHT22;6539;49.476;8.484;2022-10-15T13:37:48;18.10;99.90
12948;DHT22;6539;49.476;8.484;2022-10-15T13:40:31;18.20;99.90
12948;DHT22;6539;49.476;8.484;2022-10-15T13:45:49;18.10;99.90
12948;DHT22;6539;49.476;8.484;2022-10-15T13:48:26;14.70;99.90
12948;DHT22;6539;49.476;8.484;2022-10-15T13:50:56;18.00;99.90
12948;DHT22;6539;49.476;8.484;2022-10-15T13:53:29;18.60;99.90
12948;DHT22;6539;49.476;8.484;2022-10-15T13:56:00;18.20;99.90
12948;DHT22;6539;49.476;8.484;2022-10-15T13:58:32;18.30;99.90
12948;DHT22;6539;49.476;8.484;2022-10-15T14:01:13;18.20;99.90
12948;DHT22;6539;49.476;8.484;2022-10-15T14:04:01;18.40;99.90
12948;DHT22;6539;49.476;8.484;2022-10-15T14:06:33;18.30;99.90
12948;DHT22;6539;49.476;8.484;2022-10-15T14:09:13;18.20;99.90
12948;DHT22;6539;49.476;8.484;2022-10-15T14:11:48;18.20;99.90
12948;DHT22;6539;49.476;8.484;2022-10-15T14:14:46;18.40;99.90
12948;DHT22;6539;49.476;8.484;2022-10-15T14:19:50;18.00;99.90
12948;DHT22;6539;49.476;8.484;2022-10-15T14:22:21;17.70;99.90
12948;DHT22;6539;49.476;8.484;2022-10-15T14:24:53;17.70;99.90
12948;DHT22;6539;49.476;8.484;2022-10-15T14:27:22;18.10;99.90
12948;DHT22;6539;49.476;8.484;2022-10-15T14:29:54;18.00;99.90
12948;DHT22;6539;49.476;8.484;2022-10-15T14:34:58;17.90;99.90
12948;DHT22;6539;49.476;8.484;2022-10-15T14:42:44;18.20;99.90
12948;DHT22;6539;49.476;8.484;2022-10-15T14:47:47;17.70;99.90
12948;DHT22;6539;49.476;8.484;2022-10-15T14:50:17;17.80;99.90
12948;DHT22;6539;49.476;8.484;2022-10-15T14:52:49;18.10;99.90
12948;DHT22;6539;49.476;8.484;2022-10-15T14:55:30;17.80;99.90
12948;DHT22;6539;49.476;8.484;2022-10-15T14:58:17;17.70;99.90
12948;DHT22;6539;49.476;8.484;2022-10-15T15:00:48;17.60;99.90
12948;DHT22;6539;49.476;8.484;2022-10-15T15:03:36;17.80;99.90
12948;DHT22;6539;49.476;8.484;2022-10-15T15:06:08;17.70;99.90
12948;DHT22;6539;49.476;8.484;2022-10-15T15:08:39;17.90;99.90
12948;DHT22;6539;49.476;8.484;2022-10-15T15:11:11;18.00;99.90
12948;DHT22;6539;49.476;8.484;2022-10-15T15:13:41;17.90;99.90
12948;DHT22;6539;49.476;8.484;2022-10-15T15:16:13;18.10;99.90
12948;DHT22;6539;49.476;8.484;2022-10-15T15:18:42;18.10;99.90
12948;DHT22;6539;49.476;8.484;2022-10-15T15:21:16;17.90;99.90
12948;DHT22;6539;49.476;8.484;2022-10-15T15:23:46;17.90;99.90
12948;DHT22;6539;49.476;8.484;2022-10-15T15:31:14;18.00;99.90
12948;DHT22;6539;49.476;8.484;2022-10-15T15:33:44;18.10;99.90
12948;DHT22;6539;49.476;8.484;2022-10-15T15:36:13;17.90;99.90
12948;DHT22;6539;49.476;8.484;2022-10-15T15:38:40;18.10;99.90
12948;DHT22;6539;49.476;8.484;2022-10-15T15:41:14;17.70;99.90
12948;DHT22;6539;49.476;8.484;2022-10-15T15:43:43;17.50;99.90
12948;DHT22;6539;49.476;8.484;2022-10-15T15:46:13;17.80;99.90
12948;DHT22;6539;49.476;8.484;2022-10-15T15:48:39;17.60;99.90
12948;DHT22;6539;49.476;8.484;2022-10-15T15:51:24;17.60;99.90
12948;DHT22;6539;49.476;8.484;2022-10-15T15:53:59;17.80;99.90
12948;DHT22;6539;49.476;8.484;2022-10-15T15:56:30;17.50;99.90
12948;DHT22;6539;49.476;8.484;2022-10-15T15:58:59;17.70;99.90
12948;DHT22;6539;49.476;8.484;2022-10-15T16:01:25;17.80;99.90
12948;DHT22;6539;49.476;8.484;2022-10-15T16:06:17;17.70;99.90
12948;DHT22;6539;49.476;8.484;2022-10-15T16:08:43;18.00;99.90
12948;DHT22;6539;49.476;8.484;2022-10-15T16:11:09;17.80;99.90
12948;DHT22;6539;49.476;8.484;2022-10-15T16:16:00;18.10;99.90
12948;DHT22;6539;49.476;8.484;2022-10-15T16:18:29;18.20;99.90
12948;DHT22;6539;49.476;8.484;2022-10-15T16:28:15;17.50;99.90
12948;DHT22;6539;49.476;8.484;2022-10-15T16:33:07;17.60;99.90
12948;DHT22;6539;49.476;8.484;2022-10-15T16:35:37;17.50;99.90
12948;DHT22;6539;49.476;8.484;2022-10-15T16:38:03;17.40;99.90
12948;DHT22;6539;49.476;8.484;2022-10-15T16:40:31;17.60;99.90
12948;DHT22;6539;49.476;8.484;2022-10-15T16:43:00;17.70;99.90
12948;DHT22;6539;49.476;8.484;2022-10-15T16:50:18;17.70;99.90
12948;DHT22;6539;49.476;8.484;2022-10-15T16:57:38;17.40;99.90
12948;DHT22;6539;49.476;8.484;2022-10-15T17:00:06;17.60;99.90
12948;DHT22;6539;49.476;8.484;2022-10-15T17:02:32;17.50;99.90
12948;DHT22;6539;49.476;8.484;2022-10-15T17:05:00;17.60;99.90
12948;DHT22;6539;49.476;8.484;2022-10-15T17:07:28;17.50;99.90
12948;DHT22;6539;49.476;8.484;2022-10-15T17:09:54;17.30;99.90
12948;DHT22;6539;49.476;8.484;2022-10-15T17:12:22;16.80;99.90
12948;DHT22;6539;49.476;8.484;2022-10-15T17:14:49;17.80;99.90
12948;DHT22;6539;49.476;8.484;2022-10-15T17:17:17;17.40;99.90
12948;DHT22;6539;49.476;8.484;2022-10-15T17:19:43;17.80;99.90
12948;DHT22;6539;49.476;8.484;2022-10-15T17:22:14;17.30;99.90
12948;DHT22;6539;49.476;8.484;2022-10-15T17:27:06;17.50;99.90
12948;DHT22;6539;49.476;8.484;2022-10-15T17:29:34;17.40;99.90
12948;DHT22;6539;49.476;8.484;2022-10-15T17:32:01;17.20;99.90
12948;DHT22;6539;49.476;8.484;2022-10-15T17:34:27;17.20;99.90
12948;DHT22;6539;49.476;8.484;2022-10-15T17:36:55;17.40;99.90
12948;DHT22;6539;49.476;8.484;2022-10-15T17:41:50;17.40;99.90
12948;DHT22;6539;49.476;8.484;2022-10-15T17:44:16;17.60;99.90
12948;DHT22;6539;49.476;8.484;2022-10-15T17:46:42;17.50;99.90
12948;DHT22;6539;49.476;8.484;2022-10-15T17:49:08;17.50;99.90
12948;DHT22;6539;49.476;8.484;2022-10-15T17:51:37;17.30;99.90
12948;DHT22;6539;49.476;8.484;2022-10-15T17:56:32;17.40;99.90
12948;DHT22;6539;49.476;8.484;2022-10-15T17:59:00;17.20;99.90
12948;DHT22;6539;49.476;8.484;2022-10-15T18:01:37;17.10;99.90
12948;DHT22;6539;49.476;8.484;2022-10-15T18:04:04;17.60;99.90
12948;DHT22;6539;49.476;8.484;2022-10-15T18:06:31;17.40;99.90
12948;DHT22;6539;49.476;8.484;2022-10-15T18:11:32;17.20;99.90
12948;DHT22;6539;49.476;8.484;2022-10-15T18:13:59;17.40;99.90
12948;DHT22;6539;49.476;8.484;2022-10-15T18:16:26;17.40;99.90
12948;DHT22;6539;49.476;8.484;2022-10-15T18:21:23;17.20;99.90
12948;DHT22;6539;49.476;8.484;2022-10-15T18:26:19;17.40;99.90
12948;DHT22;6539;49.476;8.484;2022-10-15T18:28:47;17.40;99.90
12948;DHT22;6539;49.476;8.484;2022-10-15T18:31:16;17.40;99.90
12948;DHT22;6539;49.476;8.484;2022-10-15T18:33:48;17.40;99.90
12948;DHT22;6539;49.476;8.484;2022-10-15T18:36:24;17.40;99.90
12948;DHT22;6539;49.476;8.484;2022-10-15T18:38:52;17.20;99.90
12948;DHT22;6539;49.476;8.484;2022-10-15T18:41:31;17.40;99.90
12948;DHT22;6539;49.476;8.484;2022-10-15T18:44:14;17.60;99.90
12948;DHT22;6539;49.476;8.484;2022-10-15T18:46:48;17.50;99.90
12948;DHT22;6539;49.476;8.484;2022-10-15T18:49:16;17.50;99.90
12948;DHT22;6539;49.476;8.484;2022-10-15T18:51:45;17.80;99.90
12948;DHT22;6539;49.476;8.484;2022-10-15T18:54:18;17.70;99.90
12948;DHT22;6539;49.476;8.484;2022-10-15T18:59:11;17.60;99.90
12948;DHT22;6539;49.476;8.484;2022-10-15T19:01:41;17.70;99.90
12948;DHT22;6539;49.476;8.484;2022-10-15T19:04:11;17.40;99.90
12948;DHT22;6539;49.476;8.484;2022-10-15T19:06:46;17.80;99.90
12948;DHT22;6539;49.476;8.484;2022-10-15T19:09:23;17.30;99.90
12948;DHT22;6539;49.476;8.484;2022-10-15T19:11:52;17.60;99.90
12948;DHT22;6539;49.476;8.484;2022-10-15T19:14:23;17.30;99.90
12948;DHT22;6539;49.476;8.484;2022-10-15T19:16:51;17.80;99.90
12948;DHT22;6539;49.476;8.484;2022-10-15T19:19:19;17.50;99.90
12948;DHT22;6539;49.476;8.484;2022-10-15T19:21:50;17.20;99.90
12948;DHT22;6539;49.476;8.484;2022-10-15T19:24:18;17.50;99.90
12948;DHT22;6539;49.476;8.484;2022-10-15T19:26:48;17.60;99.90
12948;DHT22;6539;49.476;8.484;2022-10-15T19:29:15;17.40;99.90
12948;DHT22;6539;49.476;8.484;2022-10-15T19:31:44;17.90;99.90
12948;DHT22;6539;49.476;8.484;2022-10-15T19:34:11;17.70;99.90
12948;DHT22;6539;49.476;8.484;2022-10-15T19:36:43;17.60;99.90
12948;DHT22;6539;49.476;8.484;2022-10-15T19:39:19;17.40;99.90
12948;DHT22;6539;49.476;8.484;2022-10-15T19:41:46;17.90;99.90
12948;DHT22;6539;49.476;8.484;2022-10-15T19:44:17;17.30;99.90
12948;DHT22;6539;49.476;8.484;2022-10-15T19:46:49;17.40;99.90
12948;DHT22;6539;49.476;8.484;2022-10-15T19:49:16;17.70;99.90
12948;DHT22;6539;49.476;8.484;2022-10-15T19:51:42;17.70;99.90
12948;DHT22;6539;49.476;8.484;2022-10-15T19:54:13;17.80;99.90
12948;DHT22;6539;49.476;8.484;2022-10-15T19:59:11;17.30;99.90
12948;DHT22;6539;49.476;8.484;2022-10-15T20:01:37;17.60;99.90
12948;DHT22;6539;49.476;8.484;2022-10-15T20:04:05;17.70;99.90
12948;DHT22;6539;49.476;8.484;2022-10-15T20:06:35;17.60;99.90
12948;DHT22;6539;49.476;8.484;2022-10-15T20:09:04;17.20;99.90
12948;DHT22;6539;49.476;8.484;2022-10-15T20:11:34;17.30;99.90
12948;DHT22;6539;49.476;8.484;2022-10-15T20:16:29;17.70;99.90
12948;DHT22;6539;49.476;8.484;2022-10-15T20:18:57;17.10;99.90
12948;DHT22;6539;49.476;8.484;2022-10-15T20:21:25;17.50;99.90
12948;DHT22;6539;49.476;8.484;2022-10-15T20:23:53;17.10;99.90
12948;DHT22;6539;49.476;8.484;2022-10-15T20:26:22;17.40;99.90
12948;DHT22;6539;49.476;8.484;2022-10-15T20:31:19;17.50;99.90
12948;DHT22;6539;49.476;8.484;2022-10-15T20:33:49;17.50;99.90
12948;DHT22;6539;49.476;8.484;2022-10-15T20:38:45;17.30;99.90
12948;DHT22;6539;49.476;8.484;2022-10-15T20:41:15;17.10;99.90
12948;DHT22;6539;49.476;8.484;2022-10-15T20:43:42;17.00;99.90
12948;DHT22;6539;49.476;8.484;2022-10-15T20:46:12;17.40;99.90
12948;DHT22;6539;49.476;8.484;2022-10-15T20:48:42;17.10;99.90
12948;DHT22;6539;49.476;8.484;2022-10-15T20:51:11;17.40;99.90